This is the latest recevied weather packets stored in our database for station/object YO2MAS-13. If no packets are shown the sender has not sent any weather packets the latest 10 day(s).
| Time | Temp. | Humidity | Pressure | Rain* | Wind** | Luminosity | Snow |
|---|---|---|---|---|---|---|---|
| 1777396515 | 19.44° C | 44% | 1020.3 hPa | - | - | - | - |
| 1777395615 | 20.56° C | 44% | 1020.1 hPa | - | - | - | - |
| 1777394715 | 20.56° C | 39% | 1019.9 hPa | - | - | - | - |
| 1777393815 | 21.11° C | 41% | 1019.9 hPa | - | - | - | - |
| 1777393344 | 22.22° C | 38% | 1019.8 hPa | - | - | - | - |
| 1777392915 | 22.22° C | 38% | 1019.8 hPa | - | - | - | - |
| 1777392015 | 22.22° C | 35% | 1019.8 hPa | - | - | - | - |
| 1777391115 | 22.22° C | 34% | 1020 hPa | - | - | - | - |
| 1777390215 | 22.78° C | 36% | 1019.9 hPa | - | - | - | - |
| 1777389451 | 23.89° C | 34% | 1020 hPa | - | - | - | - |
| 1777389315 | 23.89° C | 34% | 1020 hPa | - | - | - | - |
| 1777388415 | 23.33° C | 33% | 1020.1 hPa | - | - | - | - |
| 1777387515 | 23.89° C | 31% | 1020.1 hPa | - | - | - | - |
| 1777386615 | 23.89° C | 30% | 1020.1 hPa | - | - | - | - |
| 1777385715 | 24.44° C | 31% | 1020.3 hPa | - | - | - | - |
| 1777384815 | 25° C | 31% | 1020.4 hPa | - | - | - | - |
| 1777383915 | 25° C | 31% | 1020.5 hPa | - | - | - | - |
| 1777383017 | 24.44° C | 31% | 1020.7 hPa | - | - | - | - |
| 1777382115 | 24.44° C | 30% | 1020.7 hPa | - | - | - | - |
| 1777381215 | 23.33° C | 31% | 1020.9 hPa | - | - | - | - |
| 1777380315 | 24.44° C | 31% | 1021 hPa | - | - | - | - |
| 1777379415 | 22.22° C | 31% | 1021.4 hPa | - | - | - | - |
| 1777378515 | 23.33° C | 31% | 1021.4 hPa | - | - | - | - |
| 1777377615 | 22.78° C | 30% | 1021.4 hPa | - | - | - | - |
| 1777376715 | 23.33° C | 31% | 1021.5 hPa | - | - | - | - |
* Rain since midnight (hover to see other rain measurements)
** Current wind speed in m/s (hover to see current wind gust speed)